Centralia, IL

11:56 AM CDT on September 02, 2015 (GMT -0500)
Holiday Terrace | | Change Station
CLOSE
Current Station
Personal Weather Station
Location: Centralia, IL
Elevation: 534 ft
Nearby Weather Stations

Elev 534 ft 38.52 °N, 89.11 °W | Updated 35 minutes ago

Clear
Clear
86.7 °F
Feels Like 94 °F
N
0.0
Wind Variable Wind from South
Gusts 6.0 mph

Today
High -- | Low -- °F
--% Chance of Precip.
Yesterday
High -- | Low -- °F
Precip. -- in
6:26 AM 7:25 PM
Waning Gibbous, 79% visible
Pressure 30.11 in
Visibility 10.0 miles
Clouds Clear
Heat Index 94 °F
Dew Point 73 °F
Humidity 64%
Rainfall 0.00 in
Snow Depth Not available.
UV 8 out of 12
Pollen 11.20 out of 12
Air Quality Not available.
Flu Activity Not available.
METAR KENL 021635Z AUTO 18008KT 10SM CLR 31/22 A3011 RMK AO2 T03060222
Pressure 30.11 in
Visibility 10.0 miles
Clouds Clear
Heat Index 94 °F
Dew Point 73 °F
Humidity 64%
Rainfall 0.00 in
Snow Depth Not available.
UV 8 out of 12
Pollen 11.20 out of 12
Air Quality Not available.
Flu Activity Not available.
METAR KENL 021635Z AUTO 18008KT 10SM CLR 31/22 A3011 RMK AO2 T03060222

10-Day Weather Forecast

×

Almanac

Astronomy

Sep. 02, 2015 Rise Set
Actual Time
Civil Twilight
Nautical Twilight
Astronomical Twilight
Moon
Length of Visible Light
Length of Day
Tomorrow will be .
, % of the Moon is Illuminated

Today's Extremes

State Highs State Lows

Community

WunderPhotos

Upload Photos

1,851,783 photos uploaded!

WunderBlogs® & News

Nearby

Air Quality

  Air Quality AQ Index Pollutant
Not available.

Snow Depth

Station Depth Elevation

Earthquake Activity

City Distance Mag. Time & Date
Minimum magnitude displayed is 2.5.

Coastal Water Temperatures

Place Temperature

Stations

Nearby Weather Stations

Station Location Temp. Windchill Dew Point Humidity Wind Precip. Elev Updated Type